createdAt,value
2019-04-03T00:00:53.073Z,12.20
2019-04-03T00:03:34.038Z,11.10
2019-04-03T00:06:13.424Z,11.00
2019-04-03T00:08:52.592Z,10.90
2019-04-03T00:11:32.619Z,11.40
2019-04-03T00:14:12.987Z,10.80
2019-04-03T00:16:52.728Z,10.70
2019-04-03T00:19:32.619Z,10.60
2019-04-03T00:22:12.726Z,10.50
2019-04-03T00:24:52.872Z,10.40
2019-04-03T00:27:32.569Z,10.40
2019-04-03T00:30:12.593Z,10.50
2019-04-03T00:32:53.545Z,10.50
2019-04-03T00:35:34.104Z,10.00
2019-04-03T00:38:14.013Z,9.60
2019-04-03T00:40:54.955Z,10.00
2019-04-03T00:43:35.186Z,10.10
2019-04-03T00:46:15.355Z,9.90
2019-04-03T00:48:56.180Z,9.80
2019-04-03T00:51:36.185Z,9.80
2019-04-03T00:54:16.494Z,9.80
2019-04-03T00:56:57.061Z,9.70
2019-04-03T00:59:36.760Z,9.70
2019-04-03T01:02:16.847Z,9.60
2019-04-03T01:04:58.429Z,9.50
2019-04-03T01:07:38.769Z,9.40
2019-04-03T01:10:18.099Z,9.30
2019-04-03T01:12:57.653Z,9.20
2019-04-03T01:15:37.369Z,10.50
2019-04-03T01:18:17.663Z,9.00
2019-04-03T01:20:57.332Z,9.10
2019-04-03T01:23:38.139Z,8.90
2019-04-03T01:26:18.477Z,9.20
2019-04-03T01:28:58.593Z,9.20
2019-04-03T01:31:38.677Z,9.10
2019-04-03T01:34:18.597Z,8.90
2019-04-03T01:36:58.846Z,9.20
2019-04-03T01:39:38.638Z,8.80
2019-04-03T01:42:21.606Z,10.70
2019-04-03T01:44:59.904Z,8.90
2019-04-03T01:47:39.988Z,8.90
2019-04-03T01:50:20.045Z,9.30
2019-04-03T01:53:01.693Z,8.90
2019-04-03T01:55:40.474Z,9.00
2019-04-03T01:58:19.726Z,9.00
2019-04-03T02:00:59.241Z,9.10
2019-04-03T02:03:41.185Z,10.20
2019-04-03T02:06:20.313Z,8.90
2019-04-03T02:09:00.254Z,8.80
2019-04-03T02:11:39.511Z,8.80
2019-04-03T02:14:21.182Z,8.90
2019-04-03T02:17:00.040Z,8.90
2019-04-03T02:19:40.170Z,8.80
2019-04-03T02:22:19.357Z,8.70
2019-04-03T02:24:59.655Z,8.70
2019-04-03T02:27:41.225Z,9.00
2019-04-03T02:30:20.753Z,8.50
2019-04-03T02:32:47.566Z,8.60
2019-04-03T02:35:34.109Z,8.70
2019-04-03T02:38:22.664Z,8.70
2019-04-03T02:41:09.099Z,8.80
2019-04-03T02:43:55.606Z,8.50
2019-04-03T02:46:42.205Z,8.80
2019-04-03T02:49:28.807Z,8.80
2019-04-03T02:52:15.699Z,8.70
2019-04-03T02:55:02.584Z,10.30
2019-04-03T02:57:50.915Z,8.60
2019-04-03T03:00:33.085Z,9.20
2019-04-03T03:03:16.058Z,8.60
2019-04-03T03:05:54.618Z,8.50
2019-04-03T03:08:35.042Z,8.40
2019-04-03T03:11:14.810Z,7.60
2019-04-03T03:13:54.926Z,8.60
2019-04-03T03:16:35.113Z,8.50
2019-04-03T03:19:15.136Z,8.50
2019-04-03T03:21:55.094Z,8.60
2019-04-03T03:24:35.317Z,7.90
2019-04-03T03:27:15.143Z,10.70
2019-04-03T03:29:58.447Z,8.70
2019-04-03T03:32:31.385Z,8.70
2019-04-03T03:35:20.132Z,8.80
2019-04-03T03:38:27.286Z,8.80
2019-04-03T03:41:13.212Z,8.70
2019-04-03T03:43:59.986Z,9.30
2019-04-03T03:46:46.960Z,10.70
2019-04-03T03:49:33.965Z,10.10
2019-04-03T03:52:21.035Z,8.00
2019-04-03T03:55:08.245Z,8.70
2019-04-03T03:57:56.500Z,8.10
2019-04-03T04:00:36.509Z,8.40
2019-04-03T04:03:03.675Z,8.60
2019-04-03T04:05:31.822Z,8.80
2019-04-03T04:08:20.121Z,8.70
2019-04-03T04:11:06.738Z,8.80
2019-04-03T04:13:53.460Z,8.70
2019-04-03T04:16:22.151Z,9.30
2019-04-03T04:19:08.895Z,8.80
2019-04-03T04:22:18.057Z,8.90
2019-04-03T04:25:05.785Z,8.80
2019-04-03T04:27:52.298Z,8.90
2019-04-03T04:30:39.098Z,8.60
2019-04-03T04:33:06.010Z,9.30
2019-04-03T04:35:53.243Z,8.70
2019-04-03T04:38:21.639Z,8.50
2019-04-03T04:41:08.932Z,8.70
2019-04-03T04:43:55.802Z,8.70
2019-04-03T04:46:44.516Z,8.40
2019-04-03T04:49:31.078Z,8.60
2019-04-03T04:52:17.605Z,8.70
2019-04-03T04:55:04.151Z,8.70
2019-04-03T04:57:50.681Z,8.60
2019-04-03T05:00:37.251Z,8.60
2019-04-03T05:03:23.974Z,8.60
2019-04-03T05:05:52.680Z,8.80
2019-04-03T05:08:39.216Z,8.70
2019-04-03T05:11:25.685Z,8.70
2019-04-03T05:14:12.108Z,9.30
2019-04-03T05:16:59.005Z,8.40
2019-04-03T05:19:49.020Z,9.20
2019-04-03T05:22:35.588Z,8.90
2019-04-03T05:25:22.007Z,9.60
2019-04-03T05:28:08.554Z,9.00
2019-04-03T05:30:54.970Z,8.80
2019-04-03T05:33:42.382Z,8.70
2019-04-03T05:36:29.847Z,9.30
2019-04-03T05:39:16.401Z,8.80
2019-04-03T05:42:02.913Z,8.90
2019-04-03T05:44:49.487Z,8.80
2019-04-03T05:47:38.914Z,8.80
2019-04-03T05:50:26.212Z,8.80
2019-04-03T05:53:12.802Z,8.80
2019-04-03T05:55:59.578Z,9.00
2019-04-03T05:58:55.597Z,9.40
2019-04-03T06:01:27.829Z,9.30
2019-04-03T06:04:09.904Z,9.30
2019-04-03T06:06:50.280Z,9.30
2019-04-03T06:09:30.255Z,9.50
2019-04-03T06:12:13.071Z,9.60
2019-04-03T06:14:52.797Z,9.70
2019-04-03T06:17:32.529Z,9.60
2019-04-03T06:20:13.015Z,9.60
2019-04-03T06:22:52.989Z,10.30
2019-04-03T06:25:32.886Z,10.20
2019-04-03T06:28:13.726Z,10.10
2019-04-03T06:30:55.498Z,10.00
2019-04-03T06:33:36.661Z,10.00
2019-04-03T06:36:17.193Z,10.40
2019-04-03T06:38:58.130Z,10.40
2019-04-03T06:41:37.482Z,12.20
2019-04-03T06:44:17.433Z,10.30
2019-04-03T06:46:44.617Z,10.10
2019-04-03T06:49:31.119Z,10.60
2019-04-03T06:52:17.728Z,10.90
2019-04-03T06:55:04.407Z,11.00
2019-04-03T06:57:50.948Z,11.20
2019-04-03T07:00:30.502Z,11.40
2019-04-03T07:03:10.735Z,11.70
2019-04-03T07:05:50.419Z,11.90
2019-04-03T07:08:34.861Z,12.30
2019-04-03T07:10:59.236Z,12.70
2019-04-03T07:13:45.832Z,12.90
2019-04-03T07:16:32.559Z,13.00
2019-04-03T07:19:19.083Z,13.10
2019-04-03T07:22:05.511Z,12.90
2019-04-03T07:24:52.037Z,13.80
2019-04-03T07:27:41.413Z,14.20
2019-04-03T07:30:27.146Z,13.80
2019-04-03T07:33:13.564Z,14.40
2019-04-03T07:35:59.981Z,15.20
2019-04-03T07:38:26.885Z,16.10
2019-04-03T07:41:13.398Z,16.80
2019-04-03T07:44:00.025Z,19.50
2019-04-03T07:46:48.358Z,18.10
2019-04-03T07:49:34.839Z,18.80
2019-04-03T07:52:21.501Z,18.30
2019-04-03T07:55:08.606Z,19.80
2019-04-03T07:57:55.381Z,19.00
2019-04-03T08:00:43.572Z,18.70
2019-04-03T08:03:30.283Z,18.70
2019-04-03T08:06:18.818Z,18.90
2019-04-03T08:09:09.012Z,19.90
2019-04-03T08:11:54.741Z,19.90
2019-04-03T08:14:42.013Z,19.20
2019-04-03T08:17:29.598Z,20.10
2019-04-03T08:19:56.799Z,19.70
2019-04-03T08:22:43.385Z,20.40
2019-04-03T08:25:29.895Z,22.00
2019-04-03T08:28:16.361Z,22.10
2019-04-03T08:31:03.440Z,21.40
2019-04-03T08:33:51.531Z,22.60
2019-04-03T08:36:39.483Z,23.10
2019-04-03T08:39:07.216Z,23.90
2019-04-03T08:41:55.801Z,22.80
2019-04-03T08:44:42.157Z,21.10
2019-04-03T08:47:13.626Z,21.50
2019-04-03T08:50:01.360Z,22.10
2019-04-03T08:52:47.440Z,22.00
2019-04-03T08:55:34.054Z,20.00
2019-04-03T08:58:21.968Z,21.50
2019-04-03T09:00:49.433Z,21.50
2019-04-03T09:03:35.893Z,22.40
2019-04-03T09:06:23.109Z,22.10
2019-04-03T09:08:51.516Z,21.10
2019-04-03T09:11:40.137Z,22.10
2019-04-03T09:14:28.257Z,21.10
2019-04-03T09:16:55.186Z,21.10
2019-04-03T09:19:42.316Z,21.50
2019-04-03T09:22:30.197Z,21.90
2019-04-03T09:24:58.437Z,21.80
2019-04-03T09:27:45.745Z,21.10
2019-04-03T09:30:25.251Z,21.00
2019-04-03T09:33:05.461Z,21.30
2019-04-03T09:35:45.225Z,22.90
2019-04-03T09:38:25.270Z,23.60
2019-04-03T09:41:05.269Z,23.30
2019-04-03T09:43:32.508Z,22.50
2019-04-03T09:46:19.048Z,23.70
2019-04-03T09:49:05.715Z,23.50
2019-04-03T09:51:53.883Z,24.60
2019-04-03T09:54:20.798Z,25.50
2019-04-03T09:57:07.640Z,25.60
2019-04-03T09:59:55.820Z,24.40
2019-04-03T10:02:42.638Z,24.10
2019-04-03T10:05:29.684Z,25.40
2019-04-03T10:08:17.365Z,23.80
2019-04-03T10:11:03.932Z,24.00
2019-04-03T10:13:50.346Z,22.70
2019-04-03T10:16:36.870Z,21.60
2019-04-03T10:19:23.367Z,21.00
2019-04-03T10:22:09.902Z,21.20
2019-04-03T10:24:59.370Z,21.50
2019-04-03T10:27:44.861Z,22.80
2019-04-03T10:30:24.265Z,22.20
2019-04-03T10:33:04.253Z,23.00
2019-04-03T10:35:31.201Z,24.40
2019-04-03T10:38:18.315Z,25.80
2019-04-03T10:41:06.203Z,25.60
2019-04-03T10:43:52.833Z,27.40
2019-04-03T10:46:39.397Z,27.80
2019-04-03T10:49:26.133Z,27.10
2019-04-03T10:52:14.290Z,27.00
2019-04-03T10:55:01.388Z,26.90
2019-04-03T10:57:49.534Z,26.00
2019-04-03T11:00:36.194Z,25.20
2019-04-03T11:03:22.764Z,24.90
2019-04-03T11:06:09.468Z,25.50
2019-04-03T11:08:57.892Z,26.60
2019-04-03T11:11:44.461Z,25.40
2019-04-03T11:14:31.790Z,26.40
2019-04-03T11:17:19.858Z,27.20
2019-04-03T11:20:09.760Z,25.00
2019-04-03T11:23:05.678Z,26.50
2019-04-03T11:25:45.918Z,25.80
2019-04-03T11:28:32.754Z,26.60
2019-04-03T11:31:26.612Z,28.30
2019-04-03T11:34:09.330Z,26.90
2019-04-03T11:36:56.180Z,26.80
2019-04-03T11:39:44.089Z,25.90
2019-04-03T11:42:31.230Z,24.60
2019-04-03T11:45:18.172Z,25.40
2019-04-03T11:48:04.849Z,25.00
2019-04-03T11:50:32.037Z,25.60
2019-04-03T11:53:20.466Z,25.60
2019-04-03T11:56:08.649Z,25.90
2019-04-03T11:58:55.486Z,25.60
2019-04-03T12:01:42.096Z,26.30
2019-04-03T12:04:29.078Z,26.40
2019-04-03T12:07:17.290Z,26.30
2019-04-03T12:10:04.351Z,25.00
2019-04-03T12:12:52.845Z,24.40
2019-04-03T12:15:39.624Z,24.60
2019-04-03T12:21:14.113Z,24.90
2019-04-03T12:24:01.649Z,24.90
2019-04-03T12:26:48.217Z,26.50
2019-04-03T12:29:29.912Z,27.80
2019-04-03T12:32:10.439Z,27.50
2019-04-03T12:34:50.936Z,25.50
2019-04-03T12:37:30.754Z,26.10
2019-04-03T12:40:12.565Z,25.90
2019-04-03T12:42:52.496Z,26.40
2019-04-03T12:45:32.614Z,25.80
2019-04-03T12:48:15.018Z,26.60
2019-04-03T12:50:56.917Z,26.20
2019-04-03T12:53:37.825Z,27.90
2019-04-03T12:56:04.857Z,27.20
2019-04-03T12:58:51.669Z,27.50
2019-04-03T13:01:38.891Z,27.50
2019-04-03T13:04:30.270Z,27.60
2019-04-03T13:07:15.569Z,27.60
2019-04-03T13:10:02.199Z,26.10
2019-04-03T13:12:48.726Z,27.40
2019-04-03T13:15:37.110Z,26.10
2019-04-03T13:18:23.679Z,24.70
2019-04-03T13:21:10.584Z,24.90
2019-04-03T13:23:58.695Z,25.50
2019-04-03T13:26:45.875Z,26.80
2019-04-03T13:29:26.954Z,28.80
2019-04-03T13:32:07.514Z,28.90
2019-04-03T13:34:47.251Z,28.40
2019-04-03T13:37:27.721Z,26.70
2019-04-03T13:40:07.827Z,27.00
2019-04-03T13:42:49.398Z,26.70
2019-04-03T13:45:31.037Z,28.20
2019-04-03T13:47:57.897Z,27.00
2019-04-03T13:50:25.092Z,25.80
2019-04-03T13:53:11.972Z,26.00
2019-04-03T13:55:58.890Z,25.40
2019-04-03T13:58:47.373Z,25.20
2019-04-03T14:01:33.831Z,24.50
2019-04-03T14:04:22.792Z,23.20
2019-04-03T14:07:09.672Z,25.20
2019-04-03T14:09:57.112Z,24.30
2019-04-03T14:12:45.185Z,25.10
2019-04-03T14:15:32.403Z,23.80
2019-04-03T14:18:20.519Z,23.80
2019-04-03T14:21:07.044Z,23.10
2019-04-03T14:23:54.223Z,23.40
2019-04-03T14:26:44.330Z,23.90
2019-04-03T14:29:38.524Z,24.10
2019-04-03T14:32:16.703Z,23.10
2019-04-03T14:35:04.806Z,24.20
2019-04-03T14:37:38.547Z,23.70
2019-04-03T14:40:18.231Z,23.50
2019-04-03T14:42:58.690Z,23.20
2019-04-03T14:45:40.175Z,24.00
2019-04-03T14:48:20.648Z,23.30
2019-04-03T14:51:00.354Z,23.00
2019-04-03T14:56:41.341Z,21.80
2019-04-03T14:59:21.401Z,21.40
2019-04-03T15:01:50.829Z,23.00
2019-04-03T15:04:37.681Z,22.00
2019-04-03T15:07:26.402Z,22.10
2019-04-03T15:10:13.219Z,22.70
2019-04-03T15:13:00.095Z,22.70
2019-04-03T15:15:48.213Z,22.70
2019-04-03T15:18:34.960Z,22.90
2019-04-03T15:21:23.705Z,22.90
2019-04-03T15:24:11.373Z,22.00
2019-04-03T15:26:58.736Z,21.30
2019-04-03T15:29:38.887Z,21.30
2019-04-03T15:32:20.351Z,20.80
2019-04-03T15:34:50.015Z,21.80
2019-04-03T15:37:16.045Z,20.60
2019-04-03T15:40:03.453Z,20.60
2019-04-03T15:42:50.373Z,20.30
2019-04-03T15:45:38.289Z,20.20
2019-04-03T15:48:05.873Z,20.40
2019-04-03T15:50:54.384Z,20.20
2019-04-03T15:53:42.669Z,20.10
2019-04-03T15:56:12.075Z,20.40
2019-04-03T15:58:59.234Z,20.20
2019-04-03T16:01:46.980Z,20.20
2019-04-03T16:04:34.555Z,20.30
2019-04-03T16:07:21.946Z,20.30
2019-04-03T16:10:08.632Z,20.40
2019-04-03T16:12:55.156Z,20.40
2019-04-03T16:15:42.027Z,20.20
2019-04-03T16:18:30.025Z,21.20
2019-04-03T16:21:16.463Z,20.30
2019-04-03T16:24:04.212Z,20.00
2019-04-03T16:26:51.685Z,20.00
2019-04-03T16:29:31.539Z,19.90
2019-04-03T16:32:11.821Z,19.70
2019-04-03T16:34:51.856Z,19.50
2019-04-03T16:37:32.011Z,19.60
2019-04-03T16:40:11.713Z,19.30
2019-04-03T16:42:52.997Z,19.30
2019-04-03T16:45:32.972Z,19.50
2019-04-03T16:48:15.897Z,18.40
2019-04-03T16:50:54.827Z,19.10
2019-04-03T16:53:37.621Z,18.80
2019-04-03T16:56:18.712Z,18.60
2019-04-03T16:59:00.638Z,18.90
2019-04-03T17:01:39.646Z,19.10
2019-04-03T17:04:26.484Z,18.80
2019-04-03T17:07:01.824Z,19.00
2019-04-03T17:09:41.729Z,18.50
2019-04-03T17:12:08.541Z,18.30
2019-04-03T17:18:11.261Z,18.60
2019-04-03T17:20:57.817Z,18.50
2019-04-03T17:23:45.687Z,18.20
2019-04-03T17:26:13.469Z,18.40
2019-04-03T17:29:02.582Z,18.80
2019-04-03T17:31:23.440Z,18.20
2019-04-03T17:34:10.641Z,18.10
2019-04-03T17:36:57.731Z,17.90
2019-04-03T17:39:45.757Z,17.80
2019-04-03T17:42:32.468Z,17.60
2019-04-03T17:45:19.004Z,17.80
2019-04-03T17:47:45.904Z,17.70
2019-04-03T17:50:32.322Z,17.70
2019-04-03T17:52:59.329Z,17.60
2019-04-03T17:55:45.866Z,17.50
2019-04-03T17:58:33.447Z,16.60
2019-04-03T18:01:22.484Z,17.40
2019-04-03T18:03:50.095Z,17.20
2019-04-03T18:06:18.714Z,16.30
2019-04-03T18:09:07.436Z,17.00
2019-04-03T18:11:53.961Z,17.70
2019-04-03T18:14:40.551Z,17.00
2019-04-03T18:17:07.864Z,17.00
2019-04-03T18:19:54.285Z,17.00
2019-04-03T18:22:41.063Z,17.40
2019-04-03T18:25:28.897Z,16.50
2019-04-03T18:28:16.049Z,17.10
2019-04-03T18:30:55.533Z,16.00
2019-04-03T18:33:22.534Z,15.00
2019-04-03T18:36:09.141Z,14.30
2019-04-03T18:38:55.573Z,13.20
2019-04-03T18:41:42.189Z,12.50
2019-04-03T18:44:30.303Z,12.30
2019-04-03T18:47:17.529Z,11.90
2019-04-03T18:49:44.476Z,11.40
2019-04-03T18:52:31.007Z,11.40
2019-04-03T18:55:17.537Z,10.90
2019-04-03T18:58:04.162Z,11.30
2019-04-03T19:00:50.963Z,10.90
2019-04-03T19:03:37.488Z,10.90
2019-04-03T19:06:24.040Z,10.70
2019-04-03T19:09:10.523Z,10.80
2019-04-03T19:12:07.958Z,10.10
2019-04-03T19:14:45.589Z,10.00
2019-04-03T19:17:32.063Z,11.00
2019-04-03T19:20:18.601Z,9.70
2019-04-03T19:23:07.184Z,8.40
2019-04-03T19:25:53.806Z,8.90
2019-04-03T19:28:40.275Z,8.90
2019-04-03T19:31:26.873Z,9.40
2019-04-03T19:34:19.897Z,9.00
2019-04-03T19:36:46.311Z,8.90
2019-04-03T19:39:32.838Z,8.90
2019-04-03T19:45:21.384Z,8.80
2019-04-03T19:48:09.032Z,10.50
2019-04-03T19:50:36.212Z,8.60
2019-04-03T19:53:22.757Z,8.70
2019-04-03T19:56:09.271Z,8.60
2019-04-03T19:58:36.471Z,8.60
2019-04-03T20:01:24.062Z,8.40
2019-04-03T20:04:11.405Z,8.30
2019-04-03T20:06:57.962Z,7.60
2019-04-03T20:09:44.953Z,7.80
2019-04-03T20:12:31.764Z,8.60
2019-04-03T20:15:18.173Z,8.20
2019-04-03T20:18:04.724Z,8.30
2019-04-03T20:20:33.550Z,8.00
2019-04-03T20:23:19.897Z,7.70
2019-04-03T20:26:06.969Z,7.60
2019-04-03T20:28:46.859Z,7.90
2019-04-03T20:31:13.745Z,8.10
2019-04-03T20:33:42.369Z,7.80
2019-04-03T20:36:29.315Z,7.80
2019-04-03T20:39:15.774Z,7.50
2019-04-03T20:42:03.412Z,7.50
2019-04-03T20:44:50.776Z,7.50
2019-04-03T20:47:18.077Z,7.50
2019-04-03T20:50:06.569Z,7.50
2019-04-03T20:52:52.945Z,7.30
2019-04-03T20:55:39.477Z,8.80
2019-04-03T20:58:06.779Z,7.30
2019-04-03T21:01:05.816Z,7.10
2019-04-03T21:03:22.115Z,8.10
2019-04-03T21:06:08.630Z,7.10
2019-04-03T21:08:55.188Z,9.00
2019-04-03T21:11:41.836Z,7.10
2019-04-03T21:14:28.642Z,6.60
2019-04-03T21:17:18.471Z,6.90
2019-04-03T21:20:03.805Z,7.10
2019-04-03T21:22:50.249Z,7.00
2019-04-03T21:25:36.695Z,7.60
2019-04-03T21:28:23.302Z,6.80
2019-04-03T21:31:03.112Z,7.10
2019-04-03T21:33:30.763Z,6.30
2019-04-03T21:36:18.304Z,7.00
2019-04-03T21:39:05.716Z,6.60
2019-04-03T21:41:52.129Z,7.20
2019-04-03T21:44:38.576Z,7.30
2019-04-03T21:47:25.257Z,7.10
2019-04-03T21:50:12.123Z,7.70
2019-04-03T21:52:58.582Z,6.90
2019-04-03T21:55:45.007Z,6.40
2019-04-03T21:58:31.424Z,6.90
2019-04-03T22:05:06.960Z,6.90
2019-04-03T22:07:52.761Z,6.80
2019-04-03T22:10:39.171Z,6.50
2019-04-03T22:13:25.616Z,6.90
2019-04-03T22:16:12.399Z,6.90
2019-04-03T22:18:58.909Z,6.90
2019-04-03T22:21:45.437Z,6.90
2019-04-03T22:24:32.040Z,6.10
2019-04-03T22:26:58.913Z,6.20
2019-04-03T22:29:38.461Z,6.70
2019-04-03T22:32:18.478Z,6.70
2019-04-03T22:35:00.591Z,5.50
2019-04-03T22:37:38.833Z,6.80
2019-04-03T22:40:18.925Z,7.00
2019-04-03T22:42:58.985Z,6.40
2019-04-03T22:45:39.205Z,6.70
2019-04-03T22:48:19.233Z,7.80
2019-04-03T22:50:59.624Z,6.70
2019-04-03T22:53:39.852Z,7.40
2019-04-03T22:56:20.496Z,6.70
2019-04-03T22:59:01.216Z,6.90
2019-04-03T23:01:40.730Z,8.50
2019-04-03T23:04:20.841Z,6.60
2019-04-03T23:07:00.066Z,7.30
2019-04-03T23:09:40.196Z,6.30
2019-04-03T23:12:20.278Z,7.50
2019-04-03T23:15:00.242Z,6.70
2019-04-03T23:17:40.155Z,6.80
2019-04-03T23:20:22.140Z,6.80
2019-04-03T23:23:01.550Z,6.30
2019-04-03T23:25:29.688Z,6.60
2019-04-03T23:28:17.171Z,6.70
2019-04-03T23:30:57.097Z,6.70
2019-04-03T23:33:37.224Z,7.90
2019-04-03T23:36:17.045Z,6.60
2019-04-03T23:38:57.152Z,6.60
2019-04-03T23:41:37.240Z,7.40
2019-04-03T23:44:17.049Z,6.10
2019-04-03T23:46:45.694Z,6.40
2019-04-03T23:49:33.314Z,6.50
2019-04-03T23:52:00.082Z,7.00
2019-04-03T23:54:46.737Z,6.60
2019-04-03T23:57:40.537Z,6.60
